sensor_id;sensor_type;location;lat;lon;timestamp;temperature;humidity
52267;DHT22;38223;50.940;4.034;2023-11-21T00:02:04;11.20;99.90
52267;DHT22;38223;50.940;4.034;2023-11-21T00:04:32;11.20;99.90
52267;DHT22;38223;50.940;4.034;2023-11-21T00:07:02;11.40;99.90
52267;DHT22;38223;50.940;4.034;2023-11-21T00:09:36;11.30;99.90
52267;DHT22;38223;50.940;4.034;2023-11-21T00:12:08;11.10;99.90
52267;DHT22;38223;50.940;4.034;2023-11-21T00:14:39;11.00;99.90
52267;DHT22;38223;50.940;4.034;2023-11-21T00:17:13;11.10;99.90
52267;DHT22;38223;50.940;4.034;2023-11-21T00:19:48;11.10;99.90
52267;DHT22;38223;50.940;4.034;2023-11-21T00:22:16;11.10;99.90
52267;DHT22;38223;50.940;4.034;2023-11-21T00:24:43;11.20;99.90
52267;DHT22;38223;50.940;4.034;2023-11-21T00:27:14;11.20;99.90
52267;DHT22;38223;50.940;4.034;2023-11-21T00:29:45;11.20;99.90
52267;DHT22;38223;50.940;4.034;2023-11-21T00:32:12;11.10;99.90
52267;DHT22;38223;50.940;4.034;2023-11-21T00:34:39;11.10;99.90
52267;DHT22;38223;50.940;4.034;2023-11-21T00:37:06;11.10;99.90
52267;DHT22;38223;50.940;4.034;2023-11-21T00:39:33;11.30;99.90
52267;DHT22;38223;50.940;4.034;2023-11-21T00:42:01;11.20;99.90
52267;DHT22;38223;50.940;4.034;2023-11-21T00:44:27;11.00;99.90
52267;DHT22;38223;50.940;4.034;2023-11-21T00:46:57;11.10;99.90
52267;DHT22;38223;50.940;4.034;2023-11-21T00:49:30;11.40;99.90
52267;DHT22;38223;50.940;4.034;2023-11-21T00:52:02;11.60;99.90
52267;DHT22;38223;50.940;4.034;2023-11-21T00:54:32;11.70;99.90
52267;DHT22;38223;50.940;4.034;2023-11-21T00:57:07;11.60;99.90
52267;DHT22;38223;50.940;4.034;2023-11-21T00:59:38;11.70;99.90
52267;DHT22;38223;50.940;4.034;2023-11-21T01:02:06;11.70;99.90
52267;DHT22;38223;50.940;4.034;2023-11-21T01:04:40;11.70;99.90
52267;DHT22;38223;50.940;4.034;2023-11-21T01:07:08;11.80;99.90
52267;DHT22;38223;50.940;4.034;2023-11-21T01:09:37;11.70;99.90
52267;DHT22;38223;50.940;4.034;2023-11-21T01:12:07;11.60;99.90
52267;DHT22;38223;50.940;4.034;2023-11-21T01:14:37;11.70;99.90
52267;DHT22;38223;50.940;4.034;2023-11-21T01:17:05;11.70;99.90
52267;DHT22;38223;50.940;4.034;2023-11-21T01:19:38;11.70;99.90
52267;DHT22;38223;50.940;4.034;2023-11-21T01:22:05;11.50;99.90
52267;DHT22;38223;50.940;4.034;2023-11-21T01:24:35;11.30;99.90
52267;DHT22;38223;50.940;4.034;2023-11-21T01:27:07;11.20;99.90
52267;DHT22;38223;50.940;4.034;2023-11-21T01:29:34;11.10;99.90
52267;DHT22;38223;50.940;4.034;2023-11-21T01:32:03;11.10;99.90
52267;DHT22;38223;50.940;4.034;2023-11-21T01:34:32;11.20;99.90
52267;DHT22;38223;50.940;4.034;2023-11-21T01:37:01;11.40;99.90
52267;DHT22;38223;50.940;4.034;2023-11-21T01:39:32;11.30;99.90
52267;DHT22;38223;50.940;4.034;2023-11-21T01:42:01;11.20;99.90
52267;DHT22;38223;50.940;4.034;2023-11-21T01:44:30;11.10;99.90
52267;DHT22;38223;50.940;4.034;2023-11-21T01:46:59;11.10;99.90
52267;DHT22;38223;50.940;4.034;2023-11-21T01:49:29;11.10;99.90
52267;DHT22;38223;50.940;4.034;2023-11-21T01:51:59;11.10;99.90
52267;DHT22;38223;50.940;4.034;2023-11-21T01:54:31;11.10;99.90
52267;DHT22;38223;50.940;4.034;2023-11-21T01:57:01;11.10;99.90
52267;DHT22;38223;50.940;4.034;2023-11-21T01:59:35;11.10;99.90
52267;DHT22;38223;50.940;4.034;2023-11-21T02:02:08;11.20;99.90
52267;DHT22;38223;50.940;4.034;2023-11-21T02:04:36;11.40;99.90
52267;DHT22;38223;50.940;4.034;2023-11-21T02:07:06;11.60;99.90
52267;DHT22;38223;50.940;4.034;2023-11-21T02:09:37;11.70;99.90
52267;DHT22;38223;50.940;4.034;2023-11-21T02:12:07;11.90;99.90
52267;DHT22;38223;50.940;4.034;2023-11-21T02:14:37;12.00;99.90
52267;DHT22;38223;50.940;4.034;2023-11-21T02:17:09;12.10;99.90
52267;DHT22;38223;50.940;4.034;2023-11-21T02:19:41;12.20;99.90
52267;DHT22;38223;50.940;4.034;2023-11-21T02:22:12;12.20;99.90
52267;DHT22;38223;50.940;4.034;2023-11-21T02:24:43;12.10;99.90
52267;DHT22;38223;50.940;4.034;2023-11-21T02:27:14;12.00;99.90
52267;DHT22;38223;50.940;4.034;2023-11-21T02:29:42;11.80;99.90
52267;DHT22;38223;50.940;4.034;2023-11-21T02:32:11;11.70;99.90
52267;DHT22;38223;50.940;4.034;2023-11-21T02:34:45;11.60;99.90
52267;DHT22;38223;50.940;4.034;2023-11-21T02:37:15;11.30;99.90
52267;DHT22;38223;50.940;4.034;2023-11-21T02:39:50;11.10;99.90
52267;DHT22;38223;50.940;4.034;2023-11-21T02:42:18;11.00;99.90
52267;DHT22;38223;50.940;4.034;2023-11-21T02:44:48;11.20;99.90
52267;DHT22;38223;50.940;4.034;2023-11-21T02:47:18;11.50;99.90
52267;DHT22;38223;50.940;4.034;2023-11-21T02:49:46;11.70;99.90
52267;DHT22;38223;50.940;4.034;2023-11-21T02:52:22;11.80;99.90
52267;DHT22;38223;50.940;4.034;2023-11-21T02:54:56;11.80;99.90
52267;DHT22;38223;50.940;4.034;2023-11-21T02:57:27;11.80;99.90
52267;DHT22;38223;50.940;4.034;2023-11-21T02:59:56;11.70;99.90
52267;DHT22;38223;50.940;4.034;2023-11-21T03:02:29;11.70;99.90
52267;DHT22;38223;50.940;4.034;2023-11-21T03:04:56;11.60;99.90
52267;DHT22;38223;50.940;4.034;2023-11-21T03:07:26;11.50;99.90
52267;DHT22;38223;50.940;4.034;2023-11-21T03:09:55;11.40;99.90
52267;DHT22;38223;50.940;4.034;2023-11-21T03:12:28;11.40;99.90
52267;DHT22;38223;50.940;4.034;2023-11-21T03:14:56;11.30;99.90
52267;DHT22;38223;50.940;4.034;2023-11-21T03:17:27;11.40;99.90
52267;DHT22;38223;50.940;4.034;2023-11-21T03:22:43;11.40;99.90
52267;DHT22;38223;50.940;4.034;2023-11-21T03:25:15;11.40;99.90
52267;DHT22;38223;50.940;4.034;2023-11-21T03:27:43;11.50;99.90
52267;DHT22;38223;50.940;4.034;2023-11-21T03:30:15;11.60;99.90
52267;DHT22;38223;50.940;4.034;2023-11-21T03:32:46;11.50;99.90
52267;DHT22;38223;50.940;4.034;2023-11-21T03:35:20;11.50;99.90
52267;DHT22;38223;50.940;4.034;2023-11-21T03:37:52;11.50;99.90
52267;DHT22;38223;50.940;4.034;2023-11-21T03:40:26;11.60;99.90
52267;DHT22;38223;50.940;4.034;2023-11-21T03:42:58;11.60;99.90
52267;DHT22;38223;50.940;4.034;2023-11-21T03:45:33;11.60;99.90
52267;DHT22;38223;50.940;4.034;2023-11-21T03:48:04;11.60;99.90
52267;DHT22;38223;50.940;4.034;2023-11-21T03:50:36;11.60;99.90
52267;DHT22;38223;50.940;4.034;2023-11-21T03:55:57;11.60;99.90
52267;DHT22;38223;50.940;4.034;2023-11-21T03:58:28;11.60;99.90
52267;DHT22;38223;50.940;4.034;2023-11-21T04:00:57;11.60;99.90
52267;DHT22;38223;50.940;4.034;2023-11-21T04:03:29;11.60;99.90
52267;DHT22;38223;50.940;4.034;2023-11-21T04:06:03;11.60;99.90
52267;DHT22;38223;50.940;4.034;2023-11-21T04:08:42;11.60;99.90
52267;DHT22;38223;50.940;4.034;2023-11-21T04:11:13;11.70;99.90
52267;DHT22;38223;50.940;4.034;2023-11-21T04:13:46;11.60;99.90
52267;DHT22;38223;50.940;4.034;2023-11-21T04:16:17;11.50;99.90
52267;DHT22;38223;50.940;4.034;2023-11-21T04:18:45;11.60;99.90
52267;DHT22;38223;50.940;4.034;2023-11-21T04:21:15;11.50;99.90
52267;DHT22;38223;50.940;4.034;2023-11-21T04:23:46;11.50;99.90
52267;DHT22;38223;50.940;4.034;2023-11-21T04:26:16;11.60;99.90
52267;DHT22;38223;50.940;4.034;2023-11-21T04:28:49;11.60;99.90
52267;DHT22;38223;50.940;4.034;2023-11-21T04:31:18;11.70;99.90
52267;DHT22;38223;50.940;4.034;2023-11-21T04:33:50;11.70;99.90
52267;DHT22;38223;50.940;4.034;2023-11-21T04:36:22;11.70;99.90
52267;DHT22;38223;50.940;4.034;2023-11-21T04:38:54;11.50;99.90
52267;DHT22;38223;50.940;4.034;2023-11-21T04:41:27;11.30;99.90
52267;DHT22;38223;50.940;4.034;2023-11-21T04:43:55;11.20;99.90
52267;DHT22;38223;50.940;4.034;2023-11-21T04:46:26;11.00;99.90
52267;DHT22;38223;50.940;4.034;2023-11-21T04:48:58;10.90;99.90
52267;DHT22;38223;50.940;4.034;2023-11-21T04:51:28;11.00;99.90
52267;DHT22;38223;50.940;4.034;2023-11-21T04:53:54;11.20;99.90
52267;DHT22;38223;50.940;4.034;2023-11-21T04:56:23;11.50;99.90
52267;DHT22;38223;50.940;4.034;2023-11-21T04:58:51;11.60;99.90
52267;DHT22;38223;50.940;4.034;2023-11-21T05:01:20;11.70;99.90
52267;DHT22;38223;50.940;4.034;2023-11-21T05:03:52;12.00;99.90
52267;DHT22;38223;50.940;4.034;2023-11-21T05:06:24;12.00;99.90
52267;DHT22;38223;50.940;4.034;2023-11-21T05:08:53;11.80;99.90
52267;DHT22;38223;50.940;4.034;2023-11-21T05:11:25;11.60;99.90
52267;DHT22;38223;50.940;4.034;2023-11-21T05:13:57;11.50;99.90
52267;DHT22;38223;50.940;4.034;2023-11-21T05:16:32;11.50;99.90
52267;DHT22;38223;50.940;4.034;2023-11-21T05:19:00;11.70;99.90
52267;DHT22;38223;50.940;4.034;2023-11-21T05:21:31;11.70;99.90
52267;DHT22;38223;50.940;4.034;2023-11-21T05:24:03;11.70;99.90
52267;DHT22;38223;50.940;4.034;2023-11-21T05:26:32;11.80;99.90
52267;DHT22;38223;50.940;4.034;2023-11-21T05:28:59;11.80;99.90
52267;DHT22;38223;50.940;4.034;2023-11-21T05:31:26;11.70;99.90
52267;DHT22;38223;50.940;4.034;2023-11-21T05:33:54;11.60;99.90
52267;DHT22;38223;50.940;4.034;2023-11-21T05:36:26;11.60;99.90
52267;DHT22;38223;50.940;4.034;2023-11-21T05:38:56;11.50;99.90
52267;DHT22;38223;50.940;4.034;2023-11-21T05:41:25;11.30;99.90
52267;DHT22;38223;50.940;4.034;2023-11-21T05:43:55;11.30;99.90
52267;DHT22;38223;50.940;4.034;2023-11-21T05:46:23;11.30;99.90
52267;DHT22;38223;50.940;4.034;2023-11-21T05:48:55;11.20;99.90
52267;DHT22;38223;50.940;4.034;2023-11-21T05:51:22;11.20;99.90
52267;DHT22;38223;50.940;4.034;2023-11-21T05:53:49;11.20;99.90
52267;DHT22;38223;50.940;4.034;2023-11-21T05:56:17;11.60;99.90
52267;DHT22;38223;50.940;4.034;2023-11-21T05:58:46;11.70;99.90
52267;DHT22;38223;50.940;4.034;2023-11-21T06:01:16;11.70;99.90
52267;DHT22;38223;50.940;4.034;2023-11-21T06:03:43;11.90;99.90
52267;DHT22;38223;50.940;4.034;2023-11-21T06:06:11;12.10;99.90
52267;DHT22;38223;50.940;4.034;2023-11-21T06:08:39;12.10;99.90
52267;DHT22;38223;50.940;4.034;2023-11-21T06:11:10;12.00;99.90
52267;DHT22;38223;50.940;4.034;2023-11-21T06:13:39;11.80;99.90
52267;DHT22;38223;50.940;4.034;2023-11-21T06:16:11;11.90;99.90
52267;DHT22;38223;50.940;4.034;2023-11-21T06:18:39;11.70;99.90
52267;DHT22;38223;50.940;4.034;2023-11-21T06:21:10;11.50;99.90
52267;DHT22;38223;50.940;4.034;2023-11-21T06:23:39;11.50;99.90
52267;DHT22;38223;50.940;4.034;2023-11-21T06:26:09;11.50;99.90
52267;DHT22;38223;50.940;4.034;2023-11-21T06:28:40;11.60;99.90
52267;DHT22;38223;50.940;4.034;2023-11-21T06:31:07;11.70;99.90
52267;DHT22;38223;50.940;4.034;2023-11-21T06:33:35;12.10;99.90
52267;DHT22;38223;50.940;4.034;2023-11-21T06:36:04;12.10;99.90
52267;DHT22;38223;50.940;4.034;2023-11-21T06:38:33;12.00;99.90
52267;DHT22;38223;50.940;4.034;2023-11-21T06:41:05;12.10;99.90
52267;DHT22;38223;50.940;4.034;2023-11-21T06:43:31;12.20;99.90
52267;DHT22;38223;50.940;4.034;2023-11-21T06:46:01;12.00;99.90
52267;DHT22;38223;50.940;4.034;2023-11-21T06:48:30;12.20;99.90
52267;DHT22;38223;50.940;4.034;2023-11-21T06:50:57;12.30;99.90
52267;DHT22;38223;50.940;4.034;2023-11-21T06:53:24;12.40;99.90
52267;DHT22;38223;50.940;4.034;2023-11-21T06:55:51;12.40;99.90
52267;DHT22;38223;50.940;4.034;2023-11-21T06:58:19;12.30;99.90
52267;DHT22;38223;50.940;4.034;2023-11-21T07:00:47;12.10;99.90
52267;DHT22;38223;50.940;4.034;2023-11-21T07:03:16;11.90;99.90
52267;DHT22;38223;50.940;4.034;2023-11-21T07:05:45;11.90;99.90
52267;DHT22;38223;50.940;4.034;2023-11-21T07:08:12;11.70;99.90
52267;DHT22;38223;50.940;4.034;2023-11-21T07:10:40;11.60;99.90
52267;DHT22;38223;50.940;4.034;2023-11-21T07:13:08;11.60;99.90
52267;DHT22;38223;50.940;4.034;2023-11-21T07:15:38;11.80;99.90
52267;DHT22;38223;50.940;4.034;2023-11-21T07:18:06;11.70;99.90
52267;DHT22;38223;50.940;4.034;2023-11-21T07:20:33;12.10;99.90
52267;DHT22;38223;50.940;4.034;2023-11-21T07:23:01;12.20;99.90
52267;DHT22;38223;50.940;4.034;2023-11-21T07:25:29;12.10;99.90
52267;DHT22;38223;50.940;4.034;2023-11-21T07:27:57;12.10;99.90
52267;DHT22;38223;50.940;4.034;2023-11-21T07:30:26;11.90;99.90
52267;DHT22;38223;50.940;4.034;2023-11-21T07:32:55;11.90;99.90
52267;DHT22;38223;50.940;4.034;2023-11-21T07:35:24;12.00;99.90
52267;DHT22;38223;50.940;4.034;2023-11-21T07:37:52;12.10;99.90
52267;DHT22;38223;50.940;4.034;2023-11-21T07:40:22;12.10;99.90
52267;DHT22;38223;50.940;4.034;2023-11-21T07:42:51;12.00;99.90
52267;DHT22;38223;50.940;4.034;2023-11-21T07:45:19;11.80;99.90
52267;DHT22;38223;50.940;4.034;2023-11-21T07:47:47;11.90;99.90
52267;DHT22;38223;50.940;4.034;2023-11-21T07:50:16;11.90;99.90
52267;DHT22;38223;50.940;4.034;2023-11-21T07:52:45;12.00;99.90
52267;DHT22;38223;50.940;4.034;2023-11-21T07:55:14;11.80;99.90
52267;DHT22;38223;50.940;4.034;2023-11-21T07:57:44;11.60;99.90
52267;DHT22;38223;50.940;4.034;2023-11-21T08:00:12;11.60;99.90
52267;DHT22;38223;50.940;4.034;2023-11-21T08:02:41;11.70;99.90
52267;DHT22;38223;50.940;4.034;2023-11-21T08:05:09;11.70;99.90
52267;DHT22;38223;50.940;4.034;2023-11-21T08:07:38;11.80;99.90
52267;DHT22;38223;50.940;4.034;2023-11-21T08:10:06;11.90;99.90
52267;DHT22;38223;50.940;4.034;2023-11-21T08:12:38;12.10;99.90
52267;DHT22;38223;50.940;4.034;2023-11-21T08:15:07;12.20;99.90
52267;DHT22;38223;50.940;4.034;2023-11-21T08:17:35;12.10;99.90
52267;DHT22;38223;50.940;4.034;2023-11-21T08:20:04;12.10;99.90
52267;DHT22;38223;50.940;4.034;2023-11-21T08:22:32;11.90;99.90
52267;DHT22;38223;50.940;4.034;2023-11-21T08:25:00;11.80;99.90
52267;DHT22;38223;50.940;4.034;2023-11-21T08:27:30;11.90;99.90
52267;DHT22;38223;50.940;4.034;2023-11-21T08:30:00;11.90;99.90
52267;DHT22;38223;50.940;4.034;2023-11-21T08:32:28;11.90;99.90
52267;DHT22;38223;50.940;4.034;2023-11-21T08:34:57;12.00;99.90
52267;DHT22;38223;50.940;4.034;2023-11-21T08:37:27;12.00;99.90
52267;DHT22;38223;50.940;4.034;2023-11-21T08:39:57;12.20;99.90
52267;DHT22;38223;50.940;4.034;2023-11-21T08:42:25;12.00;99.90
52267;DHT22;38223;50.940;4.034;2023-11-21T08:44:54;12.10;99.90
52267;DHT22;38223;50.940;4.034;2023-11-21T08:47:23;12.20;99.90
52267;DHT22;38223;50.940;4.034;2023-11-21T08:49:52;12.30;99.90
52267;DHT22;38223;50.940;4.034;2023-11-21T08:52:23;12.30;99.90
52267;DHT22;38223;50.940;4.034;2023-11-21T08:54:52;12.20;99.90
52267;DHT22;38223;50.940;4.034;2023-11-21T08:57:22;12.10;99.90
52267;DHT22;38223;50.940;4.034;2023-11-21T08:59:53;11.90;99.90
52267;DHT22;38223;50.940;4.034;2023-11-21T09:02:27;11.80;99.90
52267;DHT22;38223;50.940;4.034;2023-11-21T09:04:55;11.80;99.90
52267;DHT22;38223;50.940;4.034;2023-11-21T09:07:25;11.80;99.90
52267;DHT22;38223;50.940;4.034;2023-11-21T09:09:54;11.90;99.90
52267;DHT22;38223;50.940;4.034;2023-11-21T09:12:24;11.90;99.90
52267;DHT22;38223;50.940;4.034;2023-11-21T09:14:54;12.00;99.90
52267;DHT22;38223;50.940;4.034;2023-11-21T09:17:21;11.80;99.90
52267;DHT22;38223;50.940;4.034;2023-11-21T09:19:48;11.80;99.90
52267;DHT22;38223;50.940;4.034;2023-11-21T09:22:17;11.80;99.90
52267;DHT22;38223;50.940;4.034;2023-11-21T09:24:44;11.80;99.90
52267;DHT22;38223;50.940;4.034;2023-11-21T09:27:11;11.60;99.90
52267;DHT22;38223;50.940;4.034;2023-11-21T09:29:38;11.60;99.90
52267;DHT22;38223;50.940;4.034;2023-11-21T09:32:05;11.60;99.90
52267;DHT22;38223;50.940;4.034;2023-11-21T09:34:34;11.80;99.90
52267;DHT22;38223;50.940;4.034;2023-11-21T09:37:08;11.70;99.90
52267;DHT22;38223;50.940;4.034;2023-11-21T09:39:32;11.80;99.90
52267;DHT22;38223;50.940;4.034;2023-11-21T09:44:42;11.80;99.90
52267;DHT22;38223;50.940;4.034;2023-11-21T09:47:05;11.50;99.90
52267;DHT22;38223;50.940;4.034;2023-11-21T09:49:34;11.40;99.90
52267;DHT22;38223;50.940;4.034;2023-11-21T09:52:04;11.40;99.90
52267;DHT22;38223;50.940;4.034;2023-11-21T09:54:35;11.40;99.90
52267;DHT22;38223;50.940;4.034;2023-11-21T09:57:05;11.30;99.90
52267;DHT22;38223;50.940;4.034;2023-11-21T09:59:34;11.40;99.90
52267;DHT22;38223;50.940;4.034;2023-11-21T10:02:03;11.50;99.90
52267;DHT22;38223;50.940;4.034;2023-11-21T10:04:31;11.60;99.90
52267;DHT22;38223;50.940;4.034;2023-11-21T10:06:59;11.50;99.90
52267;DHT22;38223;50.940;4.034;2023-11-21T10:09:26;11.60;99.90
52267;DHT22;38223;50.940;4.034;2023-11-21T10:11:53;11.70;99.90
52267;DHT22;38223;50.940;4.034;2023-11-21T10:14:20;12.00;99.90
52267;DHT22;38223;50.940;4.034;2023-11-21T10:16:50;12.40;99.90
52267;DHT22;38223;50.940;4.034;2023-11-21T10:19:17;12.60;99.90
52267;DHT22;38223;50.940;4.034;2023-11-21T10:21:46;12.60;99.90
52267;DHT22;38223;50.940;4.034;2023-11-21T10:24:13;12.60;99.90
52267;DHT22;38223;50.940;4.034;2023-11-21T10:26:41;12.50;99.90
52267;DHT22;38223;50.940;4.034;2023-11-21T10:29:08;12.60;99.90
52267;DHT22;38223;50.940;4.034;2023-11-21T10:31:37;12.60;99.90
52267;DHT22;38223;50.940;4.034;2023-11-21T10:34:20;12.60;99.90
52267;DHT22;38223;50.940;4.034;2023-11-21T10:36:48;12.50;99.90
52267;DHT22;38223;50.940;4.034;2023-11-21T10:39:20;12.40;99.90
52267;DHT22;38223;50.940;4.034;2023-11-21T10:41:49;12.30;99.90
52267;DHT22;38223;50.940;4.034;2023-11-21T10:44:17;12.30;99.90
52267;DHT22;38223;50.940;4.034;2023-11-21T10:46:54;12.70;99.90
52267;DHT22;38223;50.940;4.034;2023-11-21T10:49:22;12.80;99.90
52267;DHT22;38223;50.940;4.034;2023-11-21T10:51:51;12.80;99.90
52267;DHT22;38223;50.940;4.034;2023-11-21T10:54:19;12.80;99.90
52267;DHT22;38223;50.940;4.034;2023-11-21T10:56:50;12.70;99.90
52267;DHT22;38223;50.940;4.034;2023-11-21T10:59:21;12.80;99.90
52267;DHT22;38223;50.940;4.034;2023-11-21T11:01:51;12.60;99.90
52267;DHT22;38223;50.940;4.034;2023-11-21T11:04:23;12.60;99.90
52267;DHT22;38223;50.940;4.034;2023-11-21T11:06:54;12.70;99.90
52267;DHT22;38223;50.940;4.034;2023-11-21T11:09:23;12.80;99.90
52267;DHT22;38223;50.940;4.034;2023-11-21T11:11:51;12.80;99.90
52267;DHT22;38223;50.940;4.034;2023-11-21T11:14:20;12.90;99.90
52267;DHT22;38223;50.940;4.034;2023-11-21T11:16:49;13.00;99.90
52267;DHT22;38223;50.940;4.034;2023-11-21T11:19:16;13.30;99.90
52267;DHT22;38223;50.940;4.034;2023-11-21T11:30:07;13.10;99.90
52267;DHT22;38223;50.940;4.034;2023-11-21T11:35:07;13.20;99.90
52267;DHT22;38223;50.940;4.034;2023-11-21T11:37:35;13.30;99.90
52267;DHT22;38223;50.940;4.034;2023-11-21T11:40:06;13.30;99.90
52267;DHT22;38223;50.940;4.034;2023-11-21T11:42:33;13.40;99.90
52267;DHT22;38223;50.940;4.034;2023-11-21T11:45:01;13.60;99.90
52267;DHT22;38223;50.940;4.034;2023-11-21T11:47:30;13.40;99.90
52267;DHT22;38223;50.940;4.034;2023-11-21T11:50:04;13.40;99.90
52267;DHT22;38223;50.940;4.034;2023-11-21T11:52:37;13.40;99.90
52267;DHT22;38223;50.940;4.034;2023-11-21T11:55:05;13.40;99.90
52267;DHT22;38223;50.940;4.034;2023-11-21T11:57:34;13.10;99.90
52267;DHT22;38223;50.940;4.034;2023-11-21T12:00:11;13.20;99.90
52267;DHT22;38223;50.940;4.034;2023-11-21T12:02:40;13.10;99.90
52267;DHT22;38223;50.940;4.034;2023-11-21T12:05:09;13.00;99.90
52267;DHT22;38223;50.940;4.034;2023-11-21T12:07:43;12.90;99.90
52267;DHT22;38223;50.940;4.034;2023-11-21T12:10:19;12.80;99.90
52267;DHT22;38223;50.940;4.034;2023-11-21T12:12:49;12.90;99.90
52267;DHT22;38223;50.940;4.034;2023-11-21T12:15:19;12.70;99.90
52267;DHT22;38223;50.940;4.034;2023-11-21T12:17:48;12.70;99.90
52267;DHT22;38223;50.940;4.034;2023-11-21T12:20:20;12.70;99.90
52267;DHT22;38223;50.940;4.034;2023-11-21T12:22:50;12.90;99.90
52267;DHT22;38223;50.940;4.034;2023-11-21T12:25:21;13.20;99.90
52267;DHT22;38223;50.940;4.034;2023-11-21T12:27:55;13.10;99.90
52267;DHT22;38223;50.940;4.034;2023-11-21T12:30:23;13.00;99.90
52267;DHT22;38223;50.940;4.034;2023-11-21T12:32:52;12.70;99.90
52267;DHT22;38223;50.940;4.034;2023-11-21T12:35:21;12.50;99.90
52267;DHT22;38223;50.940;4.034;2023-11-21T12:37:48;12.50;99.90
52267;DHT22;38223;50.940;4.034;2023-11-21T12:40:16;12.60;99.90
52267;DHT22;38223;50.940;4.034;2023-11-21T12:42:47;12.50;99.90
52267;DHT22;38223;50.940;4.034;2023-11-21T12:47:55;12.60;99.90
52267;DHT22;38223;50.940;4.034;2023-11-21T12:50:30;12.50;99.90
52267;DHT22;38223;50.940;4.034;2023-11-21T12:53:00;12.40;99.90
52267;DHT22;38223;50.940;4.034;2023-11-21T12:55:32;12.30;99.90
52267;DHT22;38223;50.940;4.034;2023-11-21T12:58:02;12.20;99.90
52267;DHT22;38223;50.940;4.034;2023-11-21T13:00:31;12.20;99.90
52267;DHT22;38223;50.940;4.034;2023-11-21T13:03:04;12.20;99.90
52267;DHT22;38223;50.940;4.034;2023-11-21T13:05:37;12.00;99.90
52267;DHT22;38223;50.940;4.034;2023-11-21T13:08:04;11.90;99.90
52267;DHT22;38223;50.940;4.034;2023-11-21T13:10:34;11.90;99.90
52267;DHT22;38223;50.940;4.034;2023-11-21T13:13:05;12.00;99.90
52267;DHT22;38223;50.940;4.034;2023-11-21T13:15:46;12.00;99.90
52267;DHT22;38223;50.940;4.034;2023-11-21T13:18:08;12.00;99.90
52267;DHT22;38223;50.940;4.034;2023-11-21T13:20:37;12.00;99.90
52267;DHT22;38223;50.940;4.034;2023-11-21T13:23:09;11.90;99.90
52267;DHT22;38223;50.940;4.034;2023-11-21T13:25:38;11.80;99.90
52267;DHT22;38223;50.940;4.034;2023-11-21T13:28:07;11.70;99.90
52267;DHT22;38223;50.940;4.034;2023-11-21T13:30:36;11.70;99.90
52267;DHT22;38223;50.940;4.034;2023-11-21T13:33:05;11.80;99.90
52267;DHT22;38223;50.940;4.034;2023-11-21T13:35:37;11.80;99.90
52267;DHT22;38223;50.940;4.034;2023-11-21T13:38:08;11.90;99.90
52267;DHT22;38223;50.940;4.034;2023-11-21T13:40:35;12.00;99.90
52267;DHT22;38223;50.940;4.034;2023-11-21T13:43:16;11.90;99.90
52267;DHT22;38223;50.940;4.034;2023-11-21T13:45:50;11.90;99.90
52267;DHT22;38223;50.940;4.034;2023-11-21T13:48:22;11.90;99.90
52267;DHT22;38223;50.940;4.034;2023-11-21T13:50:51;11.70;99.90
52267;DHT22;38223;50.940;4.034;2023-11-21T13:53:26;11.70;99.90
52267;DHT22;38223;50.940;4.034;2023-11-21T13:55:54;11.60;99.90
52267;DHT22;38223;50.940;4.034;2023-11-21T13:58:23;11.60;99.90
52267;DHT22;38223;50.940;4.034;2023-11-21T14:01:08;11.50;99.90
52267;DHT22;38223;50.940;4.034;2023-11-21T14:03:39;11.60;99.90
52267;DHT22;38223;50.940;4.034;2023-11-21T14:06:13;11.50;99.90
52267;DHT22;38223;50.940;4.034;2023-11-21T14:08:47;11.40;99.90
52267;DHT22;38223;50.940;4.034;2023-11-21T14:11:22;11.50;99.90
52267;DHT22;38223;50.940;4.034;2023-11-21T14:13:50;11.60;99.90
52267;DHT22;38223;50.940;4.034;2023-11-21T14:16:24;11.50;99.90
52267;DHT22;38223;50.940;4.034;2023-11-21T14:18:52;11.50;99.90
52267;DHT22;38223;50.940;4.034;2023-11-21T14:21:23;11.40;99.90
52267;DHT22;38223;50.940;4.034;2023-11-21T14:23:53;11.40;99.90
52267;DHT22;38223;50.940;4.034;2023-11-21T14:26:21;11.50;99.90
52267;DHT22;38223;50.940;4.034;2023-11-21T14:28:51;11.60;99.90
52267;DHT22;38223;50.940;4.034;2023-11-21T14:31:20;11.50;99.90
52267;DHT22;38223;50.940;4.034;2023-11-21T14:33:48;11.50;99.90
52267;DHT22;38223;50.940;4.034;2023-11-21T14:36:17;11.50;99.90
52267;DHT22;38223;50.940;4.034;2023-11-21T14:38:46;11.30;99.90
52267;DHT22;38223;50.940;4.034;2023-11-21T14:41:14;11.20;99.90
52267;DHT22;38223;50.940;4.034;2023-11-21T14:43:42;11.20;99.90
52267;DHT22;38223;50.940;4.034;2023-11-21T14:46:11;11.10;99.90
52267;DHT22;38223;50.940;4.034;2023-11-21T14:48:40;11.00;99.90
52267;DHT22;38223;50.940;4.034;2023-11-21T14:51:11;11.20;99.90
52267;DHT22;38223;50.940;4.034;2023-11-21T14:53:40;11.70;99.90
52267;DHT22;38223;50.940;4.034;2023-11-21T14:56:10;11.50;99.90
52267;DHT22;38223;50.940;4.034;2023-11-21T14:58:40;11.40;99.90
52267;DHT22;38223;50.940;4.034;2023-11-21T15:01:09;11.40;99.90
52267;DHT22;38223;50.940;4.034;2023-11-21T15:03:41;11.50;99.90
52267;DHT22;38223;50.940;4.034;2023-11-21T15:06:13;11.30;99.90
52267;DHT22;38223;50.940;4.034;2023-11-21T15:08:48;11.60;99.90
52267;DHT22;38223;50.940;4.034;2023-11-21T15:11:18;11.70;99.90
52267;DHT22;38223;50.940;4.034;2023-11-21T15:13:48;11.80;99.90
52267;DHT22;38223;50.940;4.034;2023-11-21T15:16:18;11.70;99.90
52267;DHT22;38223;50.940;4.034;2023-11-21T15:18:49;11.60;99.90
52267;DHT22;38223;50.940;4.034;2023-11-21T15:21:20;11.50;99.90
52267;DHT22;38223;50.940;4.034;2023-11-21T15:23:49;11.40;99.90
52267;DHT22;38223;50.940;4.034;2023-11-21T15:26:19;11.50;99.90
52267;DHT22;38223;50.940;4.034;2023-11-21T15:28:51;11.60;99.90
52267;DHT22;38223;50.940;4.034;2023-11-21T15:31:22;11.70;99.90
52267;DHT22;38223;50.940;4.034;2023-11-21T15:33:51;11.60;99.90
52267;DHT22;38223;50.940;4.034;2023-11-21T15:36:38;11.50;99.90
52267;DHT22;38223;50.940;4.034;2023-11-21T15:39:05;11.40;99.90
52267;DHT22;38223;50.940;4.034;2023-11-21T15:41:33;11.50;99.90
52267;DHT22;38223;50.940;4.034;2023-11-21T15:44:00;11.60;99.90
52267;DHT22;38223;50.940;4.034;2023-11-21T15:46:27;11.70;99.90
52267;DHT22;38223;50.940;4.034;2023-11-21T15:48:57;11.60;99.90
52267;DHT22;38223;50.940;4.034;2023-11-21T15:51:25;11.70;99.90
52267;DHT22;38223;50.940;4.034;2023-11-21T15:53:53;11.80;99.90
52267;DHT22;38223;50.940;4.034;2023-11-21T15:56:23;11.80;99.90
52267;DHT22;38223;50.940;4.034;2023-11-21T15:58:52;11.90;99.90
52267;DHT22;38223;50.940;4.034;2023-11-21T16:01:22;11.90;99.90
52267;DHT22;38223;50.940;4.034;2023-11-21T16:03:51;11.60;99.90
52267;DHT22;38223;50.940;4.034;2023-11-21T16:06:20;11.40;99.90
52267;DHT22;38223;50.940;4.034;2023-11-21T16:08:51;11.30;99.90